Time;durP1;ratioP1;P1;durP2;ratioP2;P2;SDS_P1;SDS_P2;PMS_P1;PMS_P2;Temp;Humidity;BMP_temperature;BMP_pressure;BME280_temperature;BME280_humidity;BME280_pressure;Samples;Min_cycle;Max_cycle;Signal;HPM_P1;HPM_P2
2022/09/05 00:01:05;;;;;;;2.30;2.10;;;;;;;16.51;65.61;101794.16;5035188;28;20440;-83
2022/09/05 00:03:44;;;;;;;2.13;1.95;;;;;;;16.45;65.91;101795.19;5034991;28;20044;-82
2022/09/05 00:06:14;;;;;;;2.30;2.10;;;;;;;16.42;65.82;101792.66;5034689;28;20021;-82
2022/09/05 00:09:11;;;;;;;3.90;2.45;;;;;;;16.40;65.93;101790.97;5034614;28;20076;-82
2022/09/05 00:11:52;;;;;;;2.72;2.00;;;;;;;16.35;66.63;101785.84;5030116;28;20442;-82
2022/09/05 00:14:34;;;;;;;2.28;2.00;;;;;;;16.28;66.08;101781.66;5035226;28;20029;-82
2022/09/05 00:17:11;;;;;;;3.50;2.20;;;;;;;16.25;66.25;101785.22;5034487;28;20033;-82
2022/09/05 00:19:39;;;;;;;2.85;2.38;;;;;;;16.24;66.26;101787.84;5034367;28;20175;-82
2022/09/05 00:22:27;;;;;;;2.50;2.30;;;;;;;16.24;66.28;101791.34;5034539;28;20473;-82
2022/09/05 00:25:13;;;;;;;2.70;2.30;;;;;;;16.21;67.16;101787.03;5033378;28;20068;-82
2022/09/05 00:27:47;;;;;;;2.47;2.28;;;;;;;16.17;67.06;101784.50;5034989;28;20367;-83
2022/09/05 00:30:18;;;;;;;2.40;2.20;;;;;;;16.15;66.99;101794.19;5034800;28;20378;-83
2022/09/05 00:33:00;;;;;;;2.40;2.20;;;;;;;16.10;66.98;101791.66;5034114;28;20437;-82
2022/09/05 00:35:44;;;;;;;2.78;2.13;;;;;;;16.07;67.17;101786.50;5034219;28;20429;-82
2022/09/05 00:38:16;;;;;;;3.47;2.30;;;;;;;16.02;66.72;101789.25;5034314;28;20043;-82
2022/09/05 00:40:50;;;;;;;2.90;2.30;;;;;;;15.99;67.07;101781.44;5052633;28;20358;-83
2022/09/05 00:43:20;;;;;;;3.30;2.50;;;;;;;15.95;67.25;101781.56;5054126;28;20029;-82
2022/09/05 00:45:54;;;;;;;3.88;2.40;;;;;;;15.92;69.50;101781.63;5053629;28;20025;-82
2022/09/05 00:48:42;;;;;;;4.32;2.83;;;;;;;15.87;67.89;101782.59;5079059;22;20064;-83
2022/09/05 00:51:36;;;;;;;3.90;2.45;;;;;;;15.84;67.56;101782.66;5074049;28;20032;-82
2022/09/05 00:54:37;;;;;;;3.03;2.53;;;;;;;15.82;68.10;101783.56;5068925;28;20037;-82
2022/09/05 00:57:34;;;;;;;4.65;2.90;;;;;;;15.80;67.64;101774.88;5035334;28;20037;-82
2022/09/05 01:00:02;;;;;;;4.95;2.90;;;;;;;15.75;68.16;101770.59;5072441;28;20119;-83
2022/09/05 01:02:41;;;;;;;5.13;2.90;;;;;;;15.70;68.29;101776.81;5073788;28;20029;-82
2022/09/05 01:05:24;;;;;;;4.55;2.80;;;;;;;15.66;68.82;101778.66;5073083;28;20045;-82
2022/09/05 01:08:14;;;;;;;3.83;2.65;;;;;;;15.63;68.63;101778.72;5061255;28;20385;-82
2022/09/05 01:10:55;;;;;;;3.88;2.65;;;;;;;15.61;68.34;101780.50;5053739;28;20048;-82
2022/09/05 01:13:46;;;;;;;3.60;2.70;;;;;;;15.60;68.53;101776.16;5054130;28;20029;-82
2022/09/05 01:16:24;;;;;;;3.25;2.72;;;;;;;15.57;68.87;101778.88;5053045;28;20112;-82
2022/09/05 01:19:24;;;;;;;3.80;2.70;;;;;;;15.54;68.79;101779.75;5053345;28;20025;-82
2022/09/05 01:22:14;;;;;;;4.43;2.72;;;;;;;15.52;68.60;101776.34;5053132;28;20116;-82
2022/09/05 01:25:25;;;;;;;4.18;2.60;;;;;;;15.49;68.81;101772.91;5053818;28;20039;-83
2022/09/05 01:28:21;;;;;;;3.38;2.60;;;;;;;15.43;68.81;101780.00;5052859;28;20116;-83
2022/09/05 01:30:52;;;;;;;4.00;2.85;;;;;;;15.40;68.87;101782.69;5053853;28;20039;-82
2022/09/05 01:33:28;;;;;;;4.07;2.78;;;;;;;15.37;68.89;101780.13;5053733;28;20032;-82
2022/09/05 01:36:12;;;;;;;5.07;2.90;;;;;;;15.35;69.29;101783.66;5052508;28;20060;-82
2022/09/05 01:38:46;;;;;;;3.65;2.63;;;;;;;15.33;68.93;101772.38;5071467;28;20108;-83
2022/09/05 01:41:27;;;;;;;4.30;3.00;;;;;;;15.28;69.22;101770.72;5073406;28;20152;-82
2022/09/05 01:43:55;;;;;;;4.43;2.50;;;;;;;15.27;69.73;101774.22;5070544;28;20499;-83
2022/09/05 01:46:59;;;;;;;3.70;2.40;;;;;;;15.24;69.30;101773.44;5072829;28;20069;-82
2022/09/05 01:49:43;;;;;;;3.63;2.53;;;;;;;15.20;68.89;101777.00;5049200;28;20528;-82
2022/09/05 01:52:23;;;;;;;4.07;3.00;;;;;;;15.18;69.06;101774.41;5072884;28;20481;-83
2022/09/05 01:54:51;;;;;;;4.55;2.92;;;;;;;15.16;70.09;101777.94;5073060;28;20044;-83
2022/09/05 01:57:45;;;;;;;3.88;2.63;;;;;;;15.13;72.19;101777.13;5072303;28;20411;-82
2022/09/05 02:00:15;;;;;;;4.38;2.80;;;;;;;15.10;70.01;101768.44;5050057;28;20110;-83
2022/09/05 02:03:02;;;;;;;4.53;2.90;;;;;;;15.09;69.78;101774.56;5072938;28;20024;-82
2022/09/05 02:05:50;;;;;;;3.35;2.58;;;;;;;15.06;69.90;101775.50;5063727;28;20477;-82
2022/09/05 02:08:22;;;;;;;3.28;2.58;;;;;;;15.04;70.14;101777.28;5052973;28;20029;-82
2022/09/05 02:10:51;;;;;;;4.00;2.80;;;;;;;15.05;69.74;101783.38;5052338;28;20052;-83
2022/09/05 02:13:19;;;;;;;4.07;2.60;;;;;;;15.03;70.43;101770.31;5052512;28;20036;-82
2022/09/05 02:15:57;;;;;;;4.15;2.60;;;;;;;15.01;70.37;101772.13;5052531;28;20025;-83
2022/09/05 02:18:29;;;;;;;3.85;2.50;;;;;;;14.96;70.25;101777.44;5052585;28;20388;-82
2022/09/05 02:21:01;;;;;;;5.40;2.60;;;;;;;14.95;70.40;101775.72;5052636;28;20016;-82
2022/09/05 02:23:36;;;;;;;4.65;2.78;;;;;;;14.94;69.71;101771.38;5052555;28;20059;-83
2022/09/05 02:26:22;;;;;;;4.65;3.00;;;;;;;14.96;69.95;101779.19;5051844;28;20066;-82
2022/09/05 02:28:55;;;;;;;3.80;2.72;;;;;;;14.97;72.32;101779.13;5052611;28;20029;-82
2022/09/05 02:31:39;;;;;;;4.38;2.97;;;;;;;14.95;71.45;101783.56;5052843;28;20480;-83
2022/09/05 02:34:13;;;;;;;4.00;2.63;;;;;;;14.90;70.70;101785.38;5065027;28;20039;-82
2022/09/05 02:36:45;;;;;;;3.13;2.47;;;;;;;14.87;69.77;101788.03;5072665;28;20062;-82
2022/09/05 02:39:32;;;;;;;3.35;2.50;;;;;;;14.85;70.82;101792.47;5071609;28;20047;-83
2022/09/05 02:42:17;;;;;;;3.55;2.70;;;;;;;14.82;70.42;101792.50;5072045;28;20029;-82
2022/09/05 02:45:03;;;;;;;4.43;2.80;;;;;;;14.80;70.24;101794.28;5072485;28;20043;-82
2022/09/05 02:47:38;;;;;;;3.85;2.90;;;;;;;14.78;70.29;101789.09;5071743;28;20063;-82
2022/09/05 02:50:40;;;;;;;3.67;2.83;;;;;;;14.73;70.60;101795.28;5071970;28;20025;-82
2022/09/05 02:53:10;;;;;;;4.00;2.80;;;;;;;14.71;70.43;101789.22;5071883;28;20028;-82
2022/09/05 02:56:10;;;;;;;5.13;3.10;;;;;;;14.70;71.01;101795.34;5071361;28;20017;-82
2022/09/05 02:59:21;;;;;;;6.18;3.30;;;;;;;14.64;70.81;101791.03;4997239;28;20041;-83
2022/09/05 03:01:56;;;;;;;4.60;2.63;;;;;;;14.60;70.95;101787.63;5040554;28;20051;-82
2022/09/05 03:04:35;;;;;;;4.65;2.80;;;;;;;14.57;71.33;101779.00;5072556;28;20021;-82
2022/09/05 03:07:33;;;;;;;3.80;2.80;;;;;;;14.55;71.12;101783.38;5071083;28;20028;-82
2022/09/05 03:10:41;;;;;;;4.43;2.80;;;;;;;14.53;70.95;101780.75;5072319;28;20024;-82
2022/09/05 03:13:57;;;;;;;4.03;2.70;;;;;;;14.51;71.79;101782.56;5072158;28;20054;-82
2022/09/05 03:16:41;;;;;;;;;;;;;;;14.50;71.41;101778.22;5072416;28;20127;-82
2022/09/05 03:19:31;;;;;;;2.88;2.55;;;;;;;14.48;71.78;101787.84;5072092;28;20277;-82
2022/09/05 03:22:21;;;;;;;3.42;2.40;;;;;;;14.45;71.98;101782.66;5071436;28;20031;-82
2022/09/05 03:24:46;;;;;;;3.75;2.70;;;;;;;14.44;71.50;101784.41;5072239;28;20020;-83
2022/09/05 03:27:49;;;;;;;3.63;2.60;;;;;;;14.46;72.72;101787.00;5072608;28;20048;-82
2022/09/05 03:30:17;;;;;;;3.45;2.63;;;;;;;14.44;71.68;101783.53;5061576;28;20040;-83
2022/09/05 03:33:26;;;;;;;3.72;2.50;;;;;;;14.42;71.74;101787.91;5055874;28;20508;-83
2022/09/05 03:36:40;;;;;;;3.63;2.50;;;;;;;14.41;71.79;101781.00;5054498;28;20029;-82
2022/09/05 03:39:30;;;;;;;3.17;2.40;;;;;;;14.37;72.37;101785.38;5055406;28;20056;-83
2022/09/05 03:42:07;;;;;;;2.45;2.25;;;;;;;14.34;72.01;101785.44;5054620;28;20025;-82
2022/09/05 03:44:48;;;;;;;3.42;2.30;;;;;;;14.31;72.19;101780.28;5055413;28;20028;-82
2022/09/05 03:47:51;;;;;;;3.03;2.55;;;;;;;14.31;74.15;101783.72;5055233;28;20052;-83
2022/09/05 03:50:22;;;;;;;3.95;2.75;;;;;;;14.29;72.26;101779.44;5055169;28;20037;-82
2022/09/05 03:53:19;;;;;;;5.47;3.10;;;;;;;14.30;73.95;101779.41;5055400;28;20432;-83
2022/09/05 03:56:13;;;;;;;6.05;3.25;;;;;;;14.24;72.98;101779.50;5022190;28;20120;-82
2022/09/05 03:58:54;;;;;;;5.38;3.40;;;;;;;14.25;73.91;101775.13;5072005;28;20086;-81
2022/09/05 04:01:34;;;;;;;4.53;3.05;;;;;;;14.25;74.37;101778.63;5075072;28;20024;-84
2022/09/05 04:04:03;;;;;;;3.90;2.83;;;;;;;14.26;73.39;101777.75;5074510;28;20444;-83
2022/09/05 04:06:33;;;;;;;4.05;2.85;;;;;;;14.28;72.41;101782.91;5075379;28;20024;-82
2022/09/05 04:09:41;;;;;;;3.63;2.80;;;;;;;14.31;73.01;101786.34;5074727;28;20103;-83
2022/09/05 04:12:17;;;;;;;3.50;2.83;;;;;;;14.31;73.18;101780.28;5044561;28;20032;-83
2022/09/05 04:14:45;;;;;;;3.75;2.55;;;;;;;14.29;72.80;101780.31;5075321;28;20029;-83
2022/09/05 04:17:31;;;;;;;2.67;2.40;;;;;;;14.31;74.99;101790.72;5074263;28;20115;-83
2022/09/05 04:19:58;;;;;;;;;;;;;;;14.26;77.66;101785.56;5075049;28;20078;-83
2022/09/05 04:22:38;;;;;;;5.43;3.33;;;;;;;14.21;73.88;101790.88;5074839;28;19912;-83
2022/09/05 04:25:10;;;;;;;4.07;3.00;;;;;;;14.21;74.97;101785.66;5070411;28;20071;-82
2022/09/05 04:27:52;;;;;;;4.28;3.03;;;;;;;14.20;73.46;101783.03;5054741;28;20025;-82
2022/09/05 04:30:47;;;;;;;3.58;2.75;;;;;;;14.18;73.71;101779.63;5054688;28;20033;-83
2022/09/05 04:33:29;;;;;;;3.33;2.70;;;;;;;14.15;73.15;101784.88;5054455;28;20025;-83
2022/09/05 04:36:06;;;;;;;4.03;2.65;;;;;;;14.12;73.38;101785.78;5054080;28;20477;-82
2022/09/05 04:38:40;;;;;;;3.97;2.60;;;;;;;14.11;73.56;101786.66;5053680;28;20033;-82
2022/09/05 04:41:19;;;;;;;3.03;2.30;;;;;;;14.10;73.34;101794.50;5054209;28;20021;-83
2022/09/05 04:43:51;;;;;;;2.75;2.42;;;;;;;14.08;73.26;101793.66;5063036;28;20029;-84
2022/09/05 04:46:45;;;;;;;3.22;2.33;;;;;;;14.05;73.59;101792.84;5072823;28;20032;-83
2022/09/05 04:49:32;;;;;;;2.50;2.30;;;;;;;14.03;73.40;101794.59;5071879;28;20105;-84
2022/09/05 04:52:16;;;;;;;;;;;;;;;14.01;73.25;101798.97;5074038;28;20032;-83
2022/09/05 04:54:53;;;;;;;2.88;2.50;;;;;;;14.00;73.06;101793.78;5057136;28;19969;-84
2022/09/05 04:57:29;;;;;;;2.90;2.60;;;;;;;13.97;73.33;101789.47;5054231;28;20086;-84
2022/09/05 05:00:05;;;;;;;2.97;2.40;;;;;;;13.96;74.11;101787.72;5053331;28;20036;-84
2022/09/05 05:02:40;;;;;;;2.83;2.50;;;;;;;13.95;73.36;101788.66;5055434;28;20043;-84
2022/09/05 05:05:10;;;;;;;3.30;2.57;;;;;;;13.96;73.48;101803.41;5053376;28;20150;-84
2022/09/05 05:07:50;;;;;;;2.80;2.50;;;;;;;13.96;73.72;101800.78;5053381;28;20274;-84
2022/09/05 05:10:41;;;;;;;2.58;2.20;;;;;;;13.94;73.58;101813.00;5054091;28;20374;-84
2022/09/05 05:13:09;;;;;;;3.60;2.67;;;;;;;13.97;74.68;101831.22;5052712;28;20317;-84
2022/09/05 05:15:44;;;;;;;7.47;4.70;;;;;;;13.90;78.54;101812.16;5054012;28;20040;-84
2022/09/05 05:18:34;;;;;;;6.10;4.13;;;;;;;13.90;75.70;101812.16;5053669;28;20025;-84
2022/09/05 05:21:06;;;;;;;5.50;3.70;;;;;;;13.90;74.82;101813.94;5053598;28;20037;-83
2022/09/05 05:23:41;;;;;;;5.55;3.65;;;;;;;13.94;77.57;101814.75;5053770;28;20033;-84
2022/09/05 05:26:19;;;;;;;11.50;4.88;;;;;;;13.87;78.33;101814.84;5053196;28;20527;-84
2022/09/05 05:29:08;;;;;;;6.60;4.10;;;;;;;13.87;76.47;101819.19;5053385;28;20119;-84
2022/09/05 05:31:46;;;;;;;6.28;3.83;;;;;;;13.89;75.72;101812.19;5053535;28;20064;-84
2022/09/05 05:34:26;;;;;;;4.75;3.40;;;;;;;13.93;76.17;101816.50;5052621;28;20025;-83
2022/09/05 05:36:59;;;;;;;3.80;3.00;;;;;;;13.94;74.73;101818.22;5053290;28;20031;-84
2022/09/05 05:39:27;;;;;;;4.22;3.10;;;;;;;13.97;74.49;101818.16;5053376;28;20028;-84
2022/09/05 05:41:55;;;;;;;3.92;3.00;;;;;;;13.99;75.00;101815.56;5052153;28;20060;-82
2022/09/05 05:44:25;;;;;;;3.80;2.63;;;;;;;14.00;74.97;101820.75;5054590;28;20025;-85
2022/09/05 05:47:15;;;;;;;4.35;3.00;;;;;;;14.04;75.93;101818.94;5052692;28;20110;-84
2022/09/05 05:49:52;;;;;;;5.10;3.10;;;;;;;14.07;74.48;101810.22;5067627;28;20119;-83
2022/09/05 05:52:29;;;;;;;3.13;2.50;;;;;;;14.09;76.32;101811.94;5073423;28;20051;-81
2022/09/05 05:55:32;;;;;;;3.33;2.75;;;;;;;14.12;75.58;101822.34;5073126;28;20488;-84
2022/09/05 05:58:32;;;;;;;4.55;2.60;;;;;;;14.18;76.08;101824.84;5072230;28;20043;-83
2022/09/05 06:01:29;;;;;;;2.90;2.45;;;;;;;14.22;75.30;101823.03;5073140;28;20021;-84
2022/09/05 06:04:09;;;;;;;2.53;2.28;;;;;;;14.30;76.10;101822.94;5071927;28;20038;-84
2022/09/05 06:07:01;;;;;;;3.05;2.42;;;;;;;14.34;76.63;101830.69;5072660;28;20029;-84
2022/09/05 06:10:03;;;;;;;3.38;2.70;;;;;;;14.41;76.33;101830.63;5072338;28;20029;-84
2022/09/05 06:12:43;;;;;;;2.58;2.30;;;;;;;14.49;77.28;101836.56;5072544;28;20419;-83
2022/09/05 06:15:27;;;;;;;2.38;2.17;;;;;;;14.56;75.85;101830.34;5052315;28;20045;-83
2022/09/05 06:18:33;;;;;;;2.90;2.40;;;;;;;14.68;75.39;101842.41;5069213;28;20522;-82
2022/09/05 06:21:32;;;;;;;3.53;2.60;;;;;;;14.80;77.42;101846.53;5070991;28;20089;-82
2022/09/05 06:24:24;;;;;;;3.58;2.85;;;;;;;14.91;77.69;101841.16;5071782;28;20086;-82
2022/09/05 06:27:07;;;;;;;4.65;3.28;;;;;;;15.03;77.42;101843.53;5072450;28;20036;-81
2022/09/05 06:30:14;;;;;;;4.93;3.35;;;;;;;15.17;78.07;101840.69;5072637;28;20086;-82
2022/09/05 06:33:16;;;;;;;5.40;3.80;;;;;;;15.34;77.87;101848.19;5070220;28;20366;-81
2022/09/05 06:36:29;;;;;;;5.60;3.78;;;;;;;15.50;76.59;101840.03;5069109;28;20090;-82
2022/09/05 06:39:02;;;;;;;4.00;3.20;;;;;;;15.65;75.91;101847.59;5071645;28;20100;-81
2022/09/05 06:41:45;;;;;;;3.95;2.83;;;;;;;15.80;76.71;101853.41;5072909;28;20033;-82
2022/09/05 06:44:22;;;;;;;5.43;3.60;;;;;;;15.95;75.06;101844.38;5055067;28;20044;-83
2022/09/05 06:46:53;;;;;;;5.32;3.88;;;;;;;16.13;76.00;101848.34;5051551;28;20136;-84
2022/09/05 06:49:43;;;;;;;6.03;4.20;;;;;;;16.32;73.66;101846.19;5053906;28;20029;-84
2022/09/05 06:52:35;;;;;;;6.00;3.22;;;;;;;16.48;74.23;101837.03;5051249;28;20044;-76
2022/09/05 06:55:23;;;;;;;4.75;3.45;;;;;;;16.72;74.57;101841.72;5052314;28;20162;-85
2022/09/05 06:58:03;;;;;;;3.78;3.20;;;;;;;17.01;74.62;101841.00;5052479;28;20036;-85
2022/09/05 07:00:42;;;;;;;4.40;3.30;;;;;;;18.23;75.54;101831.41;5051485;28;20037;-85
2022/09/05 07:03:23;;;;;;;4.45;3.15;;;;;;;20.78;69.54;101839.66;5055135;28;20373;-85
2022/09/05 07:05:59;;;;;;;3.78;2.83;;;;;;;23.10;65.50;101841.13;5055637;28;20039;-85
2022/09/05 07:08:33;;;;;;;4.00;2.90;;;;;;;24.60;60.06;101841.75;5056594;28;20033;-85
2022/09/05 07:11:05;;;;;;;2.83;2.35;;;;;;;25.71;56.88;101850.97;5055749;28;20021;-85
2022/09/05 07:13:37;;;;;;;3.95;3.03;;;;;;;26.54;50.69;101850.97;5055420;28;20033;-85
2022/09/05 07:16:14;;;;;;;4.40;3.35;;;;;;;26.34;52.78;101854.03;5056087;28;20405;-85
2022/09/05 07:19:05;;;;;;;3.85;3.00;;;;;;;25.94;51.97;101863.75;5056043;28;20083;-85
2022/09/05 07:22:04;;;;;;;2.80;2.50;;;;;;;24.93;52.17;101859.31;5044199;28;20091;-85
2022/09/05 07:24:34;;;;;;;2.75;2.40;;;;;;;24.10;54.01;101860.50;5056167;28;20035;-85
2022/09/05 07:27:02;;;;;;;2.58;2.20;;;;;;;23.43;56.33;101850.88;5054869;28;20064;-84
2022/09/05 07:29:33;;;;;;;3.25;2.80;;;;;;;22.90;56.25;101854.53;5055789;28;20031;-85
2022/09/05 07:32:01;;;;;;;3.03;2.50;;;;;;;22.45;57.71;101846.19;5055691;28;20040;-85
2022/09/05 07:34:28;;;;;;;2.75;2.47;;;;;;;22.14;59.29;101848.53;5055444;28;20075;-85
2022/09/05 07:36:56;;;;;;;2.50;2.30;;;;;;;21.91;58.76;101844.34;5055129;28;20025;-84
2022/09/05 07:39:27;;;;;;;3.35;2.60;;;;;;;21.73;58.99;101861.91;5055838;28;20029;-84
2022/09/05 07:41:58;;;;;;;4.28;2.90;;;;;;;21.59;58.82;101860.75;5054794;28;20052;-85
2022/09/05 07:44:28;;;;;;;2.65;2.45;;;;;;;21.50;58.32;101869.09;5055718;28;20047;-84
2022/09/05 07:47:19;;;;;;;2.30;2.10;;;;;;;21.43;58.91;101865.00;5054824;28;20191;-84
2022/09/05 07:49:46;;;;;;;3.08;2.55;;;;;;;21.37;59.75;101873.19;5054927;28;20104;-85
2022/09/05 07:52:18;;;;;;;2.55;2.30;;;;;;;21.36;59.28;101871.47;5055148;28;20497;-85
2022/09/05 07:54:46;;;;;;;3.90;2.90;;;;;;;21.41;59.29;101870.34;5055155;28;20043;-85
2022/09/05 07:57:22;;;;;;;4.10;2.70;;;;;;;21.49;59.34;101869.16;5054710;28;20029;-84
2022/09/05 07:59:51;;;;;;;2.70;2.30;;;;;;;21.58;59.00;101872.22;5055061;28;20501;-85
2022/09/05 08:02:17;;;;;;;2.92;2.30;;;;;;;21.67;58.38;101875.44;5054978;28;20017;-84
2022/09/05 08:04:42;;;;;;;2.00;1.90;;;;;;;21.79;58.71;101874.00;5055098;28;20032;-84
2022/09/05 08:07:22;;;;;;;2.40;2.20;;;;;;;21.91;55.54;101879.53;5055054;28;20017;-84
2022/09/05 08:09:53;;;;;;;2.60;2.00;;;;;;;22.06;56.90;101872.72;5054738;28;20029;-85
2022/09/05 08:12:25;;;;;;;2.97;2.67;;;;;;;22.23;57.25;101871.03;5054487;28;20448;-84
2022/09/05 08:15:06;;;;;;;2.50;2.30;;;;;;;22.44;56.62;101863.00;5054787;28;20103;-84
2022/09/05 08:17:39;;;;;;;2.20;2.03;;;;;;;22.58;53.04;101860.53;5054310;28;20039;-84
2022/09/05 08:20:41;;;;;;;4.18;2.40;;;;;;;22.74;55.10;101859.78;5054576;28;20044;-84
2022/09/05 08:23:43;;;;;;;2.97;2.10;;;;;;;22.90;55.82;101868.63;5053751;28;20037;-85
2022/09/05 08:26:13;;;;;;;2.33;2.13;;;;;;;23.03;56.06;101868.84;5054642;28;20060;-85
2022/09/05 08:28:51;;;;;;;2.05;1.95;;;;;;;23.13;55.66;101864.81;5055057;28;20036;-85
2022/09/05 08:31:27;;;;;;;3.30;2.15;;;;;;;23.27;55.11;101871.16;5054008;28;20029;-84
2022/09/05 08:33:59;;;;;;;2.83;2.10;;;;;;;23.43;53.83;101879.16;5054550;28;20044;-84
2022/09/05 08:36:36;;;;;;;2.00;1.90;;;;;;;23.62;54.98;101875.53;5054744;28;20039;-84
2022/09/05 08:39:06;;;;;;;2.72;2.20;;;;;;;23.77;53.91;101872.03;5053363;28;20025;-83
2022/09/05 08:41:43;;;;;;;2.85;2.10;;;;;;;23.95;52.95;101874.63;5054473;28;20056;-85
2022/09/05 08:44:20;;;;;;;1.92;1.83;;;;;;;24.10;54.08;101873.75;5053443;28;20065;-84
2022/09/05 08:46:56;;;;;;;1.90;1.80;;;;;;;24.24;52.15;101870.34;5054481;28;20075;-84
2022/09/05 08:49:32;;;;;;;2.40;2.20;;;;;;;24.30;53.72;101874.44;5054196;28;20108;-84
2022/09/05 08:52:22;;;;;;;3.63;2.50;;;;;;;24.35;51.80;101867.94;5053378;28;20028;-85
2022/09/05 08:54:59;;;;;;;2.95;2.28;;;;;;;24.46;52.20;101869.13;5054125;28;20496;-84
2022/09/05 08:57:58;;;;;;;2.40;2.20;;;;;;;24.67;47.88;101859.03;5054132;28;20041;-85
2022/09/05 09:00:24;;;;;;;2.58;2.38;;;;;;;24.80;47.94;101857.38;5053543;28;20021;-85
2022/09/05 09:03:07;;;;;;;2.83;2.20;;;;;;;24.98;50.95;101854.59;5054122;28;20100;-85
2022/09/05 09:06:27;;;;;;;2.30;2.10;;;;;;;25.20;49.69;101850.63;5053290;28;20033;-84
2022/09/05 09:09:01;;;;;;;2.25;1.90;;;;;;;25.37;48.63;101855.72;5033942;28;20047;-84
2022/09/05 09:11:33;;;;;;;2.28;2.08;;;;;;;25.53;46.46;101850.31;5054124;28;20025;-84
2022/09/05 09:14:37;;;;;;;2.22;2.03;;;;;;;25.73;46.11;101848.19;5052908;28;20029;-84
2022/09/05 09:17:17;;;;;;;2.90;2.10;;;;;;;25.90;45.55;101839.13;5053159;28;20091;-85
2022/09/05 09:19:51;;;;;;;2.50;2.30;;;;;;;26.02;48.59;101843.66;5053239;28;20025;-85
2022/09/05 09:22:31;;;;;;;3.83;2.30;;;;;;;26.19;47.29;101847.06;5053898;28;20028;-84
2022/09/05 09:25:12;;;;;;;2.03;1.92;;;;;;;26.31;47.42;101837.41;5052333;28;20416;-84
2022/09/05 09:28:05;;;;;;;3.15;2.10;;;;;;;26.46;45.11;101836.38;5053207;28;20083;-85
2022/09/05 09:30:34;;;;;;;2.30;2.00;;;;;;;26.61;44.79;101834.50;5053691;28;20033;-84
2022/09/05 09:33:05;;;;;;;2.00;1.90;;;;;;;26.73;44.37;101835.47;5052947;28;20052;-82
2022/09/05 09:36:00;;;;;;;3.22;2.25;;;;;;;26.84;44.35;101834.75;5052605;28;20381;-86
2022/09/05 09:38:48;;;;;;;2.53;1.90;;;;;;;27.00;42.98;101842.53;5053736;28;20393;-84
2022/09/05 09:41:38;;;;;;;2.03;1.90;;;;;;;27.10;40.93;101827.59;5015134;28;20067;-82
2022/09/05 09:45:01;;;;;;;2.20;2.00;;;;;;;27.24;42.87;101831.97;5053107;28;20032;-82
2022/09/05 09:47:51;;;;;;;2.10;1.90;;;;;;;27.36;39.68;101835.56;5069077;28;20048;-84
2022/09/05 09:50:48;;;;;;;3.42;2.28;;;;;;;27.41;41.68;101825.44;5072683;28;20114;-83
2022/09/05 09:53:40;;;;;;;2.13;2.00;;;;;;;27.57;38.59;101824.34;5021886;28;20424;-83
2022/09/05 09:56:44;;;;;;;2.15;1.80;;;;;;;27.73;40.87;101824.09;5035883;28;20128;-83
2022/09/05 09:59:50;;;;;;;2.08;1.98;;;;;;;27.84;40.59;101826.00;5052721;28;20385;-83
2022/09/05 10:02:42;;;;;;;2.00;1.80;;;;;;;27.96;38.78;101827.75;5051577;28;20051;-82
2022/09/05 10:05:31;;;;;;;4.53;2.08;;;;;;;28.09;38.18;101814.38;5070819;28;20780;-83
2022/09/05 10:08:20;;;;;;;2.30;1.90;;;;;;;28.26;38.67;101818.44;5071356;28;20047;-84
2022/09/05 10:11:10;;;;;;;3.30;2.42;;;;;;;28.39;36.35;101815.69;5070836;28;20031;-83
2022/09/05 10:14:14;;;;;;;4.82;3.30;;;;;;;28.49;38.62;101808.66;5071620;28;20048;-84
2022/09/05 10:17:06;;;;;;;5.18;3.50;;;;;;;28.60;36.61;101796.31;5070229;28;20050;-84
2022/09/05 10:19:53;;;;;;;4.90;3.03;;;;;;;28.64;36.60;101798.66;5070046;28;20058;-84
2022/09/05 10:22:42;;;;;;;3.30;2.53;;;;;;;28.75;35.84;101797.00;5072344;28;20013;-81
2022/09/05 10:25:12;;;;;;;2.67;2.33;;;;;;;28.86;34.79;101794.34;5072663;28;20028;-81
2022/09/05 10:28:04;;;;;;;1.90;1.80;;;;;;;28.97;35.45;101794.34;5073076;28;20021;-81
2022/09/05 10:30:49;;;;;;;1.85;1.75;;;;;;;29.09;36.25;101794.34;5072216;28;20048;-81
2022/09/05 10:33:37;;;;;;;2.75;1.80;;;;;;;29.22;34.96;101799.53;5072798;28;20029;-81
2022/09/05 10:36:28;;;;;;;1.70;1.60;;;;;;;29.31;36.74;101788.09;5072189;28;20024;-81
2022/09/05 10:39:06;;;;;;;1.80;1.70;;;;;;;29.39;34.75;101783.00;5071577;28;20029;-81
2022/09/05 10:42:00;;;;;;;1.45;1.40;;;;;;;29.53;36.19;101781.91;5072882;28;20499;-82
2022/09/05 10:44:41;;;;;;;1.33;1.23;;;;;;;29.70;36.71;101782.31;5070242;28;20097;-82
2022/09/05 10:47:24;;;;;;;1.40;1.30;;;;;;;29.71;35.17;101776.88;5071940;28;20101;-82
2022/09/05 10:50:06;;;;;;;1.95;1.70;;;;;;;29.74;31.76;101781.09;5072443;28;20041;-81
2022/09/05 10:52:42;;;;;;;1.65;1.55;;;;;;;29.77;33.16;101785.34;5072193;28;20032;-82
2022/09/05 10:55:23;;;;;;;2.15;1.63;;;;;;;29.90;32.58;101776.16;5071931;28;20055;-82
2022/09/05 10:58:14;;;;;;;2.45;1.70;;;;;;;30.00;33.37;101776.28;5071803;28;20431;-81
2022/09/05 11:00:51;;;;;;;1.92;1.67;;;;;;;30.11;30.35;101775.41;5072645;28;20364;-82
2022/09/05 11:03:22;;;;;;;1.50;1.40;;;;;;;30.22;32.47;101774.47;5072282;28;20111;-82
2022/09/05 11:05:56;;;;;;;2.53;1.20;;;;;;;30.33;29.20;101766.38;5071573;28;20036;-82
2022/09/05 11:08:36;;;;;;;1.70;1.60;;;;;;;30.40;29.29;101763.19;5072467;28;20091;-81
2022/09/05 11:11:25;;;;;;;1.92;1.52;;;;;;;30.42;33.23;101755.84;5071933;28;20079;-81
2022/09/05 11:13:55;;;;;;;1.50;1.40;;;;;;;30.52;31.95;101762.09;5071269;28;20370;-85
2022/09/05 11:16:38;;;;;;;1.30;1.25;;;;;;;30.60;29.91;101754.31;5062421;28;20044;-85
2022/09/05 11:19:17;;;;;;;1.50;1.40;;;;;;;30.56;31.60;101752.88;5060100;28;20033;-84
2022/09/05 11:22:02;;;;;;;1.80;1.65;;;;;;;30.57;30.44;101754.56;5059357;28;20036;-83
2022/09/05 11:25:00;;;;;;;1.57;1.47;;;;;;;30.63;32.73;101748.66;5072447;28;20426;-84
2022/09/05 11:27:35;;;;;;;1.58;1.48;;;;;;;30.74;30.06;101745.06;5055245;28;20029;-84
2022/09/05 11:30:05;;;;;;;1.58;1.48;;;;;;;30.78;31.11;101748.31;5051723;28;20032;-84
2022/09/05 11:32:55;;;;;;;1.58;1.48;;;;;;;30.85;30.99;101754.81;5052199;28;20021;-85
2022/09/05 11:35:25;;;;;;;1.58;1.48;;;;;;;30.91;29.77;101750.75;5052196;28;20064;-82
2022/09/05 11:38:09;;;;;;;1.50;1.40;;;;;;;30.95;31.17;101746.81;5053504;28;20048;-83
2022/09/05 11:40:53;;;;;;;1.52;1.42;;;;;;;30.99;30.89;101745.56;5071487;28;20028;-84
2022/09/05 11:43:55;;;;;;;1.55;1.45;;;;;;;31.08;30.99;101741.22;5072200;28;20094;-84
2022/09/05 11:46:45;;;;;;;1.60;1.50;;;;;;;31.08;31.53;101752.78;5069216;28;20106;-84
2022/09/05 11:49:29;;;;;;;1.35;1.35;;;;;;;31.13;29.59;101738.19;5073942;28;20089;-84
2022/09/05 11:52:14;;;;;;;1.73;1.52;;;;;;;31.21;30.95;101743.69;5059784;28;20032;-87
2022/09/05 11:55:04;;;;;;;1.50;1.40;;;;;;;31.24;31.18;101746.09;5067537;28;20466;-83
2022/09/05 11:57:54;;;;;;;1.30;1.30;;;;;;;31.32;31.80;101743.56;5073589;28;20035;-85
2022/09/05 12:01:06;;;;;;;1.65;1.50;;;;;;;31.31;28.81;101743.69;5075159;28;20025;-83
2022/09/05 12:03:44;;;;;;;1.77;1.67;;;;;;;31.29;29.83;101741.16;5055695;28;20087;-84
2022/09/05 12:06:28;;;;;;;1.45;1.45;;;;;;;31.31;29.63;101743.69;5056158;28;20057;-84
2022/09/05 12:09:10;;;;;;;1.80;1.70;;;;;;;31.27;30.73;101738.63;5070139;28;20127;-84
2022/09/05 12:12:06;;;;;;;1.50;1.40;;;;;;;31.24;31.04;101732.69;5075263;28;20078;-84
2022/09/05 12:14:39;;;;;;;1.60;1.50;;;;;;;31.21;30.29;101735.66;5060790;28;20098;-84
2022/09/05 12:17:10;;;;;;;1.60;1.42;;;;;;;31.23;30.59;101737.19;5073871;28;20033;-83
2022/09/05 12:19:40;;;;;;;1.50;1.40;;;;;;;31.27;29.04;101725.22;5070005;28;20028;-83
2022/09/05 12:22:27;;;;;;;1.35;1.27;;;;;;;31.30;30.12;101729.44;5062241;28;20032;-84
2022/09/05 12:25:14;;;;;;;1.25;1.25;;;;;;;31.37;29.01;101719.03;5073054;28;20032;-83
2022/09/05 12:27:48;;;;;;;2.97;1.70;;;;;;;31.34;29.91;101714.78;5069654;28;20036;-84
2022/09/05 12:30:23;;;;;;;2.40;1.75;;;;;;;31.25;29.09;101721.81;5054244;28;20013;-84
2022/09/05 12:32:51;;;;;;;1.50;1.40;;;;;;;31.27;28.66;101714.50;5054847;28;20439;-84
2022/09/05 12:35:47;;;;;;;1.67;1.50;;;;;;;31.33;29.01;101710.41;5055935;28;20135;-84
2022/09/05 12:38:31;;;;;;;1.88;1.77;;;;;;;31.26;29.70;101701.22;5065520;28;20071;-83